createdAt,value
2019-05-02T00:00:47.150Z,986.33
2019-05-02T00:01:47.147Z,986.3
2019-05-02T00:02:47.142Z,986.32
2019-05-02T00:03:47.132Z,986.31
2019-05-02T00:04:50.935Z,986.28
2019-05-02T00:05:47.128Z,986.29
2019-05-02T00:06:47.122Z,986.31
2019-05-02T00:07:47.114Z,986.26
2019-05-02T00:08:47.111Z,986.23
2019-05-02T00:09:48.262Z,986.25
2019-05-02T00:10:47.103Z,986.24
2019-05-02T00:11:58.122Z,986.26
2019-05-02T00:12:47.092Z,986.2
2019-05-02T00:13:47.089Z,986.19
2019-05-02T00:14:47.085Z,986.2
2019-05-02T00:15:47.083Z,986.17
2019-05-02T00:16:49.239Z,986.2
2019-05-02T00:17:47.070Z,986.22
2019-05-02T00:18:47.060Z,986.16
2019-05-02T00:19:49.774Z,986.17
2019-05-02T00:20:47.051Z,986.19
2019-05-02T00:21:47.047Z,986.16
2019-05-02T00:22:47.895Z,986.16
2019-05-02T00:23:47.047Z,986.14
2019-05-02T00:24:47.033Z,986.19
2019-05-02T00:25:52.045Z,986.18
2019-05-02T00:26:47.031Z,986.18
2019-05-02T00:27:47.032Z,986.15
2019-05-02T00:28:47.890Z,986.18
2019-05-02T00:29:47.005Z,986.15
2019-05-02T00:30:47.007Z,986.17
2019-05-02T00:31:48.785Z,986.14
2019-05-02T00:32:47.000Z,986.14
2019-05-02T00:33:46.999Z,986.12
2019-05-02T00:34:46.984Z,986.16
2019-05-02T00:35:47.604Z,986.15
2019-05-02T00:36:46.979Z,986.15
2019-05-02T00:37:46.979Z,986.14
2019-05-02T00:38:47.762Z,986.11
2019-05-02T00:39:49.127Z,986.09
2019-05-02T00:40:46.960Z,986.12
2019-05-02T00:41:46.949Z,986.07
2019-05-02T00:42:46.963Z,986.01
2019-05-02T00:43:46.936Z,986.06
2019-05-02T00:44:48.230Z,986.02
2019-05-02T00:45:46.923Z,986.06
2019-05-02T00:46:46.919Z,986.03
2019-05-02T00:47:47.568Z,986.02
2019-05-02T00:48:46.909Z,986
2019-05-02T00:49:46.901Z,986.02
2019-05-02T00:50:50.618Z,986.02
2019-05-02T00:51:46.890Z,986
2019-05-02T00:52:46.885Z,986
2019-05-02T00:53:48.267Z,985.99
2019-05-02T00:54:46.882Z,985.99
2019-05-02T00:55:46.870Z,985.98
2019-05-02T00:56:46.871Z,985.98
2019-05-02T00:57:50.828Z,985.93
2019-05-02T00:58:46.861Z,985.97
2019-05-02T00:59:46.847Z,985.94
2019-05-02T01:00:48.562Z,985.96
2019-05-02T01:01:46.841Z,985.93
2019-05-02T01:02:46.831Z,985.93
2019-05-02T01:03:47.023Z,985.93
2019-05-02T01:04:46.816Z,985.91
2019-05-02T01:05:46.821Z,985.88
2019-05-02T01:06:49.178Z,985.85
2019-05-02T01:07:46.810Z,985.89
2019-05-02T01:08:46.797Z,985.92
2019-05-02T01:09:48.010Z,985.88
2019-05-02T01:10:46.780Z,985.89
2019-05-02T01:11:46.774Z,985.9
2019-05-02T01:12:46.769Z,985.88
2019-05-02T01:13:50.205Z,985.89
2019-05-02T01:14:46.759Z,985.87
2019-05-02T01:15:46.752Z,985.88
2019-05-02T01:16:49.333Z,985.9
2019-05-02T01:17:46.747Z,985.88
2019-05-02T01:18:46.732Z,985.89
2019-05-02T01:19:47.128Z,985.88
2019-05-02T01:20:46.722Z,985.88
2019-05-02T01:21:46.715Z,985.89
2019-05-02T01:22:47.048Z,985.89
2019-05-02T01:23:46.704Z,985.82
2019-05-02T01:24:46.702Z,985.8
2019-05-02T01:25:47.185Z,985.83
2019-05-02T01:26:46.686Z,985.81
2019-05-02T01:27:46.677Z,985.82
2019-05-02T01:28:49.121Z,985.84
2019-05-02T01:29:46.669Z,985.81
2019-05-02T01:30:46.669Z,985.85
2019-05-02T01:31:49.831Z,985.82
2019-05-02T01:32:46.646Z,985.82
2019-05-02T01:33:46.641Z,985.79
2019-05-02T01:34:48.866Z,985.81
2019-05-02T01:35:46.629Z,985.85
2019-05-02T01:36:46.624Z,985.86
2019-05-02T01:37:50.931Z,985.81
2019-05-02T01:38:46.607Z,985.81
2019-05-02T01:39:46.611Z,985.84
2019-05-02T01:40:48.033Z,985.81
2019-05-02T01:41:46.590Z,985.84
2019-05-02T01:42:48.987Z,985.88
2019-05-02T01:43:46.578Z,985.84
2019-05-02T01:44:46.570Z,985.83
2019-05-02T01:45:46.760Z,985.87
2019-05-02T01:46:46.558Z,985.87
2019-05-02T01:47:46.553Z,985.84
2019-05-02T01:48:47.735Z,985.86
2019-05-02T01:49:46.582Z,985.81
2019-05-02T01:50:46.535Z,985.84
2019-05-02T01:51:47.313Z,985.87
2019-05-02T01:52:46.524Z,985.83
2019-05-02T01:53:46.517Z,985.81
2019-05-02T01:54:47.574Z,985.82
2019-05-02T01:55:46.585Z,985.8
2019-05-02T01:56:46.500Z,985.81
2019-05-02T01:57:46.496Z,985.79
2019-05-02T01:58:46.487Z,985.77
2019-05-02T01:59:46.480Z,985.78
2019-05-02T02:00:46.474Z,985.8
2019-05-02T02:01:46.472Z,985.77
2019-05-02T02:02:46.463Z,985.77
2019-05-02T02:03:46.970Z,985.82
2019-05-02T02:04:46.448Z,985.8
2019-05-02T02:05:46.445Z,985.79
2019-05-02T02:06:46.438Z,985.84
2019-05-02T02:07:46.431Z,985.75
2019-05-02T02:08:46.440Z,985.8
2019-05-02T02:09:46.419Z,985.83
2019-05-02T02:10:50.394Z,985.81
2019-05-02T02:11:46.411Z,985.81
2019-05-02T02:13:02.406Z,985.84
2019-05-02T02:13:46.393Z,985.83
2019-05-02T02:14:47.986Z,985.82
2019-05-02T02:15:46.382Z,985.83
2019-05-02T02:16:46.375Z,985.83
2019-05-02T02:17:46.728Z,985.82
2019-05-02T02:18:46.374Z,985.79
2019-05-02T02:19:46.355Z,985.8
2019-05-02T02:20:49.040Z,985.8
2019-05-02T02:21:46.352Z,985.84
2019-05-02T02:22:46.335Z,985.78
2019-05-02T02:23:49.582Z,985.75
2019-05-02T02:24:46.324Z,985.78
2019-05-02T02:25:46.317Z,985.72
2019-05-02T02:26:48.129Z,985.71
2019-05-02T02:27:46.301Z,985.71
2019-05-02T02:28:46.299Z,985.73
2019-05-02T02:29:46.289Z,985.71
2019-05-02T02:30:46.282Z,985.7
2019-05-02T02:31:48.485Z,985.72
2019-05-02T02:32:46.268Z,985.76
2019-05-02T02:33:47.559Z,985.72
2019-05-02T02:34:46.260Z,985.71
2019-05-02T02:35:50.311Z,985.72
2019-05-02T02:36:46.240Z,985.69
2019-05-02T02:37:52.865Z,985.68
2019-05-02T02:38:46.229Z,985.67
2019-05-02T02:39:48.341Z,985.7
2019-05-02T02:40:46.215Z,985.7
2019-05-02T02:41:51.935Z,985.68
2019-05-02T02:42:46.202Z,985.7
2019-05-02T02:43:46.194Z,985.74
2019-05-02T02:44:46.188Z,985.71
2019-05-02T02:45:51.688Z,985.73
2019-05-02T02:46:46.175Z,985.71
2019-05-02T02:47:46.169Z,985.75
2019-05-02T02:48:46.159Z,985.78
2019-05-02T02:49:46.158Z,985.81
2019-05-02T02:50:46.171Z,985.79
2019-05-02T02:51:46.139Z,985.79
2019-05-02T02:52:47.085Z,985.81
2019-05-02T02:53:46.126Z,985.76
2019-05-02T02:54:46.122Z,985.78
2019-05-02T02:55:49.367Z,985.83
2019-05-02T02:56:46.105Z,985.79
2019-05-02T02:57:46.105Z,985.81
2019-05-02T02:58:47.955Z,985.84
2019-05-02T02:59:46.086Z,985.81
2019-05-02T03:00:47.476Z,985.79
2019-05-02T03:01:46.079Z,985.77
2019-05-02T03:02:48.375Z,985.79
2019-05-02T03:03:46.063Z,985.83
2019-05-02T03:04:46.519Z,985.72
2019-05-02T03:05:46.052Z,985.74
2019-05-02T03:06:47.159Z,985.77
2019-05-02T03:07:46.031Z,985.78
2019-05-02T03:08:49.111Z,985.74
2019-05-02T03:09:46.021Z,985.72
2019-05-02T03:10:46.611Z,985.72
2019-05-02T03:11:46.019Z,985.72
2019-05-02T03:12:45.998Z,985.71
2019-05-02T03:13:52.213Z,985.71
2019-05-02T03:14:47.056Z,985.73
2019-05-02T03:15:45.981Z,985.7
2019-05-02T03:16:48.848Z,985.68
2019-05-02T03:17:45.967Z,985.69
2019-05-02T03:18:45.983Z,985.64
2019-05-02T03:19:45.955Z,985.66
2019-05-02T03:20:45.965Z,985.63
2019-05-02T03:21:45.937Z,985.67
2019-05-02T03:22:45.929Z,985.6
2019-05-02T03:23:45.932Z,985.62
2019-05-02T03:24:46.736Z,985.67
2019-05-02T03:25:50.243Z,985.62
2019-05-02T03:26:48.588Z,985.65
2019-05-02T03:27:45.902Z,985.66
2019-05-02T03:28:57.000Z,985.64
2019-05-02T03:29:45.887Z,985.6
2019-05-02T03:30:45.894Z,985.6
2019-05-02T03:31:45.871Z,985.59
2019-05-02T03:33:02.449Z,985.57
2019-05-02T03:33:54.124Z,985.54
2019-05-02T03:34:51.615Z,985.6
2019-05-02T03:35:48.902Z,985.61
2019-05-02T03:36:45.836Z,985.59
2019-05-02T03:37:51.256Z,985.59
2019-05-02T03:38:45.822Z,985.55
2019-05-02T03:39:49.294Z,985.6
2019-05-02T03:40:45.807Z,985.63
2019-05-02T03:41:45.853Z,985.59
2019-05-02T03:42:47.596Z,985.57
2019-05-02T03:43:45.786Z,985.64
2019-05-02T03:44:54.566Z,985.69
2019-05-02T03:45:45.798Z,985.63
2019-05-02T03:46:45.770Z,985.63
2019-05-02T03:47:46.506Z,985.69
2019-05-02T03:48:45.752Z,985.71
2019-05-02T03:49:48.502Z,985.69
2019-05-02T03:50:45.736Z,985.69
2019-05-02T03:51:45.729Z,985.69
2019-05-02T03:52:46.436Z,985.73
2019-05-02T03:53:45.720Z,985.72
2019-05-02T03:54:49.901Z,985.64
2019-05-02T03:55:45.700Z,985.68
2019-05-02T03:56:51.025Z,985.67
2019-05-02T03:57:45.689Z,985.66
2019-05-02T03:58:48.269Z,985.76
2019-05-02T03:59:45.679Z,985.69
2019-05-02T04:00:45.666Z,985.72
2019-05-02T04:01:45.656Z,985.72
2019-05-02T04:02:45.652Z,985.72
2019-05-02T04:03:45.640Z,985.66
2019-05-02T04:04:45.637Z,985.64
2019-05-02T04:05:45.632Z,985.68
2019-05-02T04:06:45.638Z,985.73
2019-05-02T04:07:45.611Z,985.66
2019-05-02T04:08:45.605Z,985.71
2019-05-02T04:09:45.594Z,985.71
2019-05-02T04:10:45.594Z,985.72
2019-05-02T04:11:45.582Z,985.72
2019-05-02T04:12:45.577Z,985.77
2019-05-02T04:13:45.584Z,985.75
2019-05-02T04:14:45.559Z,985.77
2019-05-02T04:15:45.554Z,985.77
2019-05-02T04:16:48.454Z,985.77
2019-05-02T04:17:45.536Z,985.83
2019-05-02T04:18:54.357Z,985.83
2019-05-02T04:19:45.528Z,985.77
2019-05-02T04:20:49.476Z,985.76
2019-05-02T04:21:45.509Z,985.79
2019-05-02T04:22:48.851Z,985.78
2019-05-02T04:23:45.491Z,985.81
2019-05-02T04:24:54.286Z,985.78
2019-05-02T04:25:45.476Z,985.78
2019-05-02T04:26:53.499Z,985.84
2019-05-02T04:27:45.512Z,985.85
2019-05-02T04:28:51.525Z,985.85
2019-05-02T04:29:45.456Z,985.85
2019-05-02T04:30:51.057Z,985.88
2019-05-02T04:31:45.437Z,985.93
2019-05-02T04:32:49.553Z,985.89
2019-05-02T04:33:45.422Z,985.91
2019-05-02T04:34:48.823Z,985.91
2019-05-02T04:35:45.405Z,985.92
2019-05-02T04:36:46.474Z,985.92
2019-05-02T04:37:45.394Z,985.96
2019-05-02T04:38:48.584Z,985.99
2019-05-02T04:39:45.383Z,985.93
2019-05-02T04:40:47.091Z,985.97
2019-05-02T04:41:48.392Z,985.97
2019-05-02T04:42:51.117Z,985.99
2019-05-02T04:43:51.269Z,985.92
2019-05-02T04:45:08.661Z,985.89
2019-05-02T04:46:00.717Z,985.88
2019-05-02T04:47:10.763Z,985.87
2019-05-02T04:48:03.750Z,985.87
2019-05-02T04:49:00.697Z,985.89
2019-05-02T04:50:07.442Z,985.85
2019-05-02T04:51:09.671Z,985.89
2019-05-02T04:52:06.668Z,985.87
2019-05-02T04:53:00.669Z,985.9
2019-05-02T04:54:00.686Z,985.92
2019-05-02T04:55:12.949Z,985.95
2019-05-02T04:56:06.774Z,985.94
2019-05-02T04:57:02.267Z,985.96
2019-05-02T04:58:01.688Z,985.92
2019-05-02T04:59:01.778Z,985.87
2019-05-02T05:00:06.076Z,985.9
2019-05-02T05:01:01.742Z,985.85
2019-05-02T05:02:01.439Z,985.82
2019-05-02T05:03:00.630Z,985.86
2019-05-02T05:04:02.968Z,985.89
2019-05-02T05:05:00.626Z,985.84
2019-05-02T05:06:07.008Z,985.92
2019-05-02T05:07:01.041Z,985.93
2019-05-02T05:08:00.612Z,985.95
2019-05-02T05:09:03.947Z,985.94
2019-05-02T05:10:02.964Z,985.96
2019-05-02T05:11:00.609Z,985.93
2019-05-02T05:12:02.471Z,985.93
2019-05-02T05:13:00.602Z,985.97
2019-05-02T05:14:00.610Z,985.9
2019-05-02T05:15:00.623Z,985.95
2019-05-02T05:16:02.871Z,985.99
2019-05-02T05:17:00.590Z,985.99
2019-05-02T05:18:04.342Z,986.02
2019-05-02T05:19:00.587Z,986.05
2019-05-02T05:20:10.335Z,985.99
2019-05-02T05:21:00.582Z,986.03
2019-05-02T05:22:04.633Z,986
2019-05-02T05:23:00.580Z,986.02
2019-05-02T05:24:01.427Z,985.97
2019-05-02T05:25:00.576Z,985.99
2019-05-02T05:26:03.548Z,986
2019-05-02T05:27:00.574Z,985.99
2019-05-02T05:28:05.477Z,985.96
2019-05-02T05:29:00.578Z,985.94
2019-05-02T05:30:07.804Z,985.98
2019-05-02T05:31:00.569Z,985.92
2019-05-02T05:32:05.082Z,986
2019-05-02T05:33:00.567Z,985.99
2019-05-02T05:34:00.563Z,986.03
2019-05-02T05:35:03.170Z,986
2019-05-02T05:36:00.564Z,986.03
2019-05-02T05:37:03.488Z,986.04
2019-05-02T05:38:00.559Z,986.05
2019-05-02T05:39:02.912Z,986.05
2019-05-02T05:40:00.564Z,986.09
2019-05-02T05:41:02.933Z,986.15
2019-05-02T05:42:00.551Z,986.13
2019-05-02T05:43:02.077Z,986.15
2019-05-02T05:44:00.549Z,986.07
2019-05-02T05:45:03.641Z,986.06
2019-05-02T05:46:09.029Z,986.11
2019-05-02T05:47:00.543Z,986.1
2019-05-02T05:48:01.115Z,986.18
2019-05-02T05:49:00.534Z,986.17
2019-05-02T05:50:01.153Z,986.17
2019-05-02T05:51:00.530Z,986.11
2019-05-02T05:52:03.688Z,986.04
2019-05-02T05:53:00.529Z,986.05
2019-05-02T05:54:03.041Z,986.05
2019-05-02T05:55:00.526Z,986.09
2019-05-02T05:56:02.423Z,986.14
2019-05-02T05:57:00.521Z,986.05
2019-05-02T05:58:09.237Z,986.14
2019-05-02T05:59:00.522Z,986
2019-05-02T06:00:03.654Z,986.04
2019-05-02T06:01:00.522Z,986.01
2019-05-02T06:02:00.547Z,986.05
2019-05-02T06:03:09.921Z,986.05
2019-05-02T06:04:00.516Z,986.06
2019-05-02T06:05:03.638Z,986.04
2019-05-02T06:06:00.518Z,986.01
2019-05-02T06:07:03.136Z,986.06
2019-05-02T06:08:00.520Z,986.05
2019-05-02T06:09:00.519Z,986.01
2019-05-02T06:10:02.162Z,985.93
2019-05-02T06:11:00.523Z,985.93
2019-05-02T06:12:00.521Z,985.98
2019-05-02T06:13:00.569Z,985.97
2019-05-02T06:14:00.535Z,985.91
2019-05-02T06:15:01.558Z,985.95
2019-05-02T06:16:02.331Z,985.92
2019-05-02T06:17:00.527Z,985.85
2019-05-02T06:18:04.686Z,985.96
2019-05-02T06:19:00.530Z,985.88
2019-05-02T06:20:00.535Z,985.83
2019-05-02T06:21:03.148Z,985.86
2019-05-02T06:22:00.532Z,985.82
2019-05-02T06:23:01.286Z,985.94
2019-05-02T06:24:00.546Z,985.84
2019-05-02T06:25:00.535Z,985.98
2019-05-02T06:26:00.538Z,985.91
2019-05-02T06:27:00.541Z,985.89
2019-05-02T06:28:05.161Z,985.97
2019-05-02T06:29:00.537Z,985.97
2019-05-02T06:30:00.543Z,985.95
2019-05-02T06:31:02.074Z,985.91
2019-05-02T06:32:00.541Z,985.89
2019-05-02T06:33:00.541Z,985.96
2019-05-02T06:34:02.005Z,985.93
2019-05-02T06:35:00.553Z,985.99
2019-05-02T06:36:01.293Z,985.94
2019-05-02T06:37:00.552Z,985.93
2019-05-02T06:38:00.552Z,985.88
2019-05-02T06:39:00.568Z,985.91
2019-05-02T06:40:03.034Z,985.9
2019-05-02T06:41:00.559Z,985.91
2019-05-02T06:42:00.559Z,985.9
2019-05-02T06:43:04.148Z,985.97
2019-05-02T06:44:00.568Z,985.88
2019-05-02T06:45:01.102Z,985.9
2019-05-02T06:46:00.569Z,985.91
2019-05-02T06:47:04.155Z,985.88
2019-05-02T06:48:01.222Z,985.86
2019-05-02T06:49:00.581Z,985.86
2019-05-02T06:50:01.014Z,985.82
2019-05-02T06:51:00.594Z,985.84
2019-05-02T06:52:00.592Z,985.85
2019-05-02T06:53:04.237Z,985.85
2019-05-02T06:54:00.594Z,985.88
2019-05-02T06:55:00.598Z,985.82
2019-05-02T06:56:00.603Z,985.85
2019-05-02T06:57:00.603Z,985.89
2019-05-02T06:58:02.439Z,985.86
2019-05-02T06:59:00.615Z,985.9
2019-05-02T07:00:00.617Z,985.86
2019-05-02T07:01:00.620Z,985.81
2019-05-02T07:02:00.664Z,985.85
2019-05-02T07:03:04.892Z,985.79
2019-05-02T07:04:03.780Z,985.81
2019-05-02T07:05:00.637Z,985.79
2019-05-02T07:06:02.637Z,985.79
2019-05-02T07:07:00.728Z,985.84
2019-05-02T07:08:00.740Z,985.73
2019-05-02T07:09:00.680Z,985.78
2019-05-02T07:10:00.666Z,985.73
2019-05-02T07:11:01.564Z,985.75
2019-05-02T07:12:01.541Z,985.74
2019-05-02T07:13:09.916Z,985.71
2019-05-02T07:14:12.345Z,985.71
2019-05-02T07:15:01.486Z,985.73
2019-05-02T07:16:00.689Z,985.77
2019-05-02T07:17:00.706Z,985.72
2019-05-02T07:18:05.278Z,985.72
2019-05-02T07:19:00.703Z,985.66
2019-05-02T07:20:03.773Z,985.73
2019-05-02T07:21:00.721Z,985.7
2019-05-02T07:22:04.172Z,985.72
2019-05-02T07:23:00.732Z,985.74
2019-05-02T07:24:00.731Z,985.74
2019-05-02T07:25:01.772Z,985.74
2019-05-02T07:26:00.759Z,985.7
2019-05-02T07:27:02.315Z,985.68
2019-05-02T07:28:04.537Z,985.69
2019-05-02T07:29:00.753Z,985.66
2019-05-02T07:30:00.764Z,985.69
2019-05-02T07:31:00.764Z,985.69
2019-05-02T07:32:00.770Z,985.67
2019-05-02T07:33:01.087Z,985.67
2019-05-02T07:34:00.789Z,985.64
2019-05-02T07:35:00.789Z,985.64
2019-05-02T07:36:01.418Z,985.6
2019-05-02T07:37:00.792Z,985.62
2019-05-02T07:38:00.794Z,985.54
2019-05-02T07:39:05.059Z,985.56
2019-05-02T07:40:00.805Z,985.53
2019-05-02T07:41:00.811Z,985.51
2019-05-02T07:42:05.734Z,985.55
2019-05-02T07:43:00.836Z,985.53
2019-05-02T07:44:00.823Z,985.53
2019-05-02T07:45:04.244Z,985.58
2019-05-02T07:46:00.831Z,985.53
2019-05-02T07:47:02.436Z,985.54
2019-05-02T07:48:01.509Z,985.57
2019-05-02T07:49:00.843Z,985.58
2019-05-02T07:50:05.204Z,985.58
2019-05-02T07:51:00.851Z,985.55
2019-05-02T07:52:00.862Z,985.56
2019-05-02T07:53:04.297Z,985.56
2019-05-02T07:54:00.864Z,985.58
2019-05-02T07:55:02.421Z,985.53
2019-05-02T07:56:00.873Z,985.51
2019-05-02T07:57:02.358Z,985.49
2019-05-02T07:58:01.854Z,985.51
2019-05-02T07:59:00.885Z,985.54
2019-05-02T08:00:02.630Z,985.52
2019-05-02T08:01:00.903Z,985.45
2019-05-02T08:02:00.896Z,985.43
2019-05-02T08:03:00.901Z,985.49
2019-05-02T08:04:04.321Z,985.49
2019-05-02T08:05:00.913Z,985.47
2019-05-02T08:06:00.918Z,985.39
2019-05-02T08:07:00.931Z,985.4
2019-05-02T08:08:00.930Z,985.41
2019-05-02T08:09:01.468Z,985.41
2019-05-02T08:10:00.938Z,985.37
2019-05-02T08:11:02.849Z,985.42
2019-05-02T08:12:00.958Z,985.34
2019-05-02T08:13:00.954Z,985.36
2019-05-02T08:14:00.966Z,985.35
2019-05-02T08:15:00.974Z,985.29
2019-05-02T08:16:00.972Z,985.34
2019-05-02T08:17:05.561Z,985.31
2019-05-02T08:18:00.981Z,985.27
2019-05-02T08:19:01.265Z,985.28
2019-05-02T08:20:00.999Z,985.26
2019-05-02T08:21:01.002Z,985.28
2019-05-02T08:22:04.104Z,985.31
2019-05-02T08:23:01.011Z,985.26
2019-05-02T08:24:02.129Z,985.3
2019-05-02T08:25:01.024Z,985.29
2019-05-02T08:26:01.030Z,985.29
2019-05-02T08:27:01.034Z,985.31
2019-05-02T08:28:01.049Z,985.28
2019-05-02T08:29:01.054Z,985.26
2019-05-02T08:30:04.220Z,985.27
2019-05-02T08:31:01.071Z,985.25
2019-05-02T08:32:01.072Z,985.26
2019-05-02T08:33:01.070Z,985.23
2019-05-02T08:34:05.138Z,985.25
2019-05-02T08:35:01.092Z,985.23
2019-05-02T08:36:01.094Z,985.25
2019-05-02T08:37:03.059Z,985.25
2019-05-02T08:38:01.095Z,985.23
2019-05-02T08:39:01.105Z,985.22
2019-05-02T08:40:05.287Z,985.22
2019-05-02T08:41:01.129Z,985.21
2019-05-02T08:42:01.135Z,985.23
2019-05-02T08:43:03.384Z,985.13
2019-05-02T08:44:01.182Z,985.22
2019-05-02T08:45:02.822Z,985.22
2019-05-02T08:46:01.147Z,985.21
2019-05-02T08:47:01.149Z,985.19
2019-05-02T08:48:05.074Z,985.22
2019-05-02T08:49:01.158Z,985.22
2019-05-02T08:50:01.160Z,985.19
2019-05-02T08:51:01.174Z,985.17
2019-05-02T08:52:01.171Z,985.23
2019-05-02T08:53:01.182Z,985.22
2019-05-02T08:54:01.178Z,985.23
2019-05-02T08:55:04.282Z,985.25
2019-05-02T08:56:01.187Z,985.25
2019-05-02T08:57:01.193Z,985.19
2019-05-02T08:58:01.195Z,985.2
2019-05-02T08:59:02.806Z,985.16
2019-05-02T09:00:01.490Z,985.13
2019-05-02T09:01:01.214Z,985.13
2019-05-02T09:02:01.211Z,985.09
2019-05-02T09:03:02.451Z,985.09
2019-05-02T09:04:01.213Z,985.1
2019-05-02T09:05:04.487Z,985.09
2019-05-02T09:06:05.763Z,985.08
2019-05-02T09:07:01.305Z,985.09
2019-05-02T09:08:01.223Z,985.13
2019-05-02T09:09:01.228Z,985.16
2019-05-02T09:10:05.623Z,985.13
2019-05-02T09:11:01.234Z,985.15
2019-05-02T09:12:09.523Z,985.08
2019-05-02T09:13:02.619Z,985.02
2019-05-02T09:14:02.039Z,985.06
2019-05-02T09:15:02.691Z,985.01
2019-05-02T09:16:03.351Z,985.04
2019-05-02T09:17:08.046Z,985.02
2019-05-02T09:18:02.800Z,984.97
2019-05-02T09:19:02.735Z,984.99
2019-05-02T09:20:05.019Z,984.96
2019-05-02T09:21:02.029Z,984.99
2019-05-02T09:22:02.536Z,984.98
2019-05-02T09:23:01.701Z,985.03
2019-05-02T09:24:02.453Z,985.01
2019-05-02T09:25:02.208Z,985.04
2019-05-02T09:26:02.545Z,984.99
2019-05-02T09:27:02.470Z,984.95
2019-05-02T09:28:01.826Z,984.99
2019-05-02T09:29:05.212Z,984.96
2019-05-02T09:30:02.704Z,984.98
2019-05-02T09:31:02.775Z,984.98
2019-05-02T09:32:02.124Z,984.97
2019-05-02T09:33:02.683Z,984.94
2019-05-02T09:34:02.645Z,984.98
2019-05-02T09:35:04.725Z,984.91
2019-05-02T09:36:02.345Z,984.97
2019-05-02T09:37:02.678Z,984.91
2019-05-02T09:38:01.791Z,984.95
2019-05-02T09:39:02.607Z,984.95
2019-05-02T09:40:02.168Z,984.93
2019-05-02T09:41:15.275Z,984.95
2019-05-02T09:42:02.138Z,984.85
2019-05-02T09:43:02.662Z,984.82
2019-05-02T09:44:02.811Z,984.81
2019-05-02T09:45:03.070Z,984.8
2019-05-02T09:46:02.514Z,984.79
2019-05-02T09:47:02.326Z,984.78
2019-05-02T09:48:05.019Z,984.76
2019-05-02T09:49:02.354Z,984.74
2019-05-02T09:50:02.738Z,984.71
2019-05-02T09:51:04.184Z,984.72
2019-05-02T09:52:03.271Z,984.71
2019-05-02T09:53:01.864Z,984.69
2019-05-02T09:54:02.451Z,984.66
2019-05-02T09:55:02.801Z,984.59
2019-05-02T09:56:02.116Z,984.63
2019-05-02T09:57:02.781Z,984.61
2019-05-02T09:58:02.626Z,984.53
2019-05-02T09:59:06.445Z,984.59
2019-05-02T10:00:02.119Z,984.59
2019-05-02T10:01:01.972Z,984.58
2019-05-02T10:02:01.985Z,984.61
2019-05-02T10:03:02.651Z,984.65
2019-05-02T10:04:02.341Z,984.62
2019-05-02T10:05:01.917Z,984.59
2019-05-02T10:06:03.070Z,984.54
2019-05-02T10:07:02.516Z,984.55
2019-05-02T10:08:02.877Z,984.49
2019-05-02T10:09:02.744Z,984.49
2019-05-02T10:10:03.012Z,984.52
2019-05-02T10:11:02.768Z,984.48
2019-05-02T10:12:01.992Z,984.52
2019-05-02T10:13:02.728Z,984.49
2019-05-02T10:14:02.437Z,984.49
2019-05-02T10:15:02.301Z,984.5
2019-05-02T10:16:02.024Z,984.4
2019-05-02T10:17:02.915Z,984.46
2019-05-02T10:18:08.573Z,984.44
2019-05-02T10:19:09.209Z,984.38
2019-05-02T10:20:01.988Z,984.41
2019-05-02T10:21:02.969Z,984.43
2019-05-02T10:22:01.867Z,984.42
2019-05-02T10:23:02.205Z,984.4
2019-05-02T10:24:03.587Z,984.38
2019-05-02T10:25:02.522Z,984.37
2019-05-02T10:26:02.811Z,984.37
2019-05-02T10:27:03.875Z,984.35
2019-05-02T10:28:02.095Z,984.34
2019-05-02T10:29:02.009Z,984.28
2019-05-02T10:30:07.836Z,984.25
2019-05-02T10:31:02.227Z,984.25
2019-05-02T10:32:01.841Z,984.23
2019-05-02T10:33:02.495Z,984.2
2019-05-02T10:34:02.317Z,984.19
2019-05-02T10:35:02.076Z,984.26
2019-05-02T10:36:02.653Z,984.23
2019-05-02T10:37:03.042Z,984.28
2019-05-02T10:38:02.481Z,984.27
2019-05-02T10:39:01.845Z,984.22
2019-05-02T10:40:02.960Z,984.26
2019-05-02T10:41:02.436Z,984.24
2019-05-02T10:42:02.072Z,984.19
2019-05-02T10:43:02.841Z,984.17
2019-05-02T10:44:02.176Z,984.13
2019-05-02T10:45:02.736Z,984.16
2019-05-02T10:46:01.757Z,984.18
2019-05-02T10:47:02.820Z,984.13
2019-05-02T10:48:02.238Z,984.15
2019-05-02T10:49:01.962Z,984.12
2019-05-02T10:50:02.243Z,984.11
2019-05-02T10:51:01.730Z,984.14
2019-05-02T10:52:02.576Z,984.12
2019-05-02T10:53:03.398Z,984.06
2019-05-02T10:54:02.240Z,984.05
2019-05-02T10:55:02.600Z,984.08
2019-05-02T10:56:02.656Z,984.02
2019-05-02T10:57:02.280Z,984.02
2019-05-02T10:58:01.864Z,983.96
2019-05-02T10:59:02.222Z,983.96
2019-05-02T11:00:03.186Z,984.02
2019-05-02T11:01:02.230Z,984.02
2019-05-02T11:02:02.488Z,984.08
2019-05-02T11:03:02.618Z,984.04
2019-05-02T11:04:02.101Z,983.98
2019-05-02T11:05:02.664Z,983.89
2019-05-02T11:06:03.523Z,983.93
2019-05-02T11:07:02.591Z,983.85
2019-05-02T11:08:06.068Z,983.88
2019-05-02T11:09:02.818Z,983.83
2019-05-02T11:10:02.930Z,983.85
2019-05-02T11:11:02.106Z,983.89
2019-05-02T11:12:02.533Z,983.84
2019-05-02T11:13:01.932Z,983.86
2019-05-02T11:14:05.570Z,983.82
2019-05-02T11:15:02.264Z,983.86
2019-05-02T11:16:01.716Z,983.89
2019-05-02T11:17:01.790Z,983.84
2019-05-02T11:18:02.281Z,983.85
2019-05-02T11:19:02.411Z,983.85
2019-05-02T11:20:01.963Z,983.83
2019-05-02T11:21:04.268Z,983.84
2019-05-02T11:22:02.913Z,983.77
2019-05-02T11:23:02.183Z,983.78
2019-05-02T11:24:02.357Z,983.79
2019-05-02T11:25:01.991Z,983.87
2019-05-02T11:26:01.779Z,983.84
2019-05-02T11:27:02.168Z,983.89
2019-05-02T11:28:02.722Z,983.86
2019-05-02T11:29:02.924Z,983.88
2019-05-02T11:30:02.771Z,983.88
2019-05-02T11:31:06.312Z,983.75
2019-05-02T11:32:02.721Z,983.87
2019-05-02T11:33:03.031Z,983.83
2019-05-02T11:34:01.845Z,983.79
2019-05-02T11:35:02.915Z,983.79
2019-05-02T11:36:02.466Z,983.72
2019-05-02T11:37:01.818Z,983.68
2019-05-02T11:38:02.459Z,983.66
2019-05-02T11:39:09.643Z,983.69
2019-05-02T11:40:05.409Z,983.7
2019-05-02T11:41:02.707Z,983.63
2019-05-02T11:42:02.057Z,983.58
2019-05-02T11:43:04.947Z,983.51
2019-05-02T11:44:02.927Z,983.59
2019-05-02T11:45:02.629Z,983.56
2019-05-02T11:46:07.037Z,983.65
2019-05-02T11:47:02.037Z,983.6
2019-05-02T11:48:08.858Z,983.67
2019-05-02T11:49:02.330Z,983.59
2019-05-02T11:50:02.380Z,983.62
2019-05-02T11:51:02.707Z,983.6
2019-05-02T11:52:04.521Z,983.62
2019-05-02T11:53:02.805Z,983.59
2019-05-02T11:54:04.912Z,983.62
2019-05-02T11:55:02.112Z,983.57
2019-05-02T11:56:03.519Z,983.55
2019-05-02T11:57:02.183Z,983.61
2019-05-02T11:58:07.791Z,983.59
2019-05-02T11:59:02.758Z,983.5
2019-05-02T12:00:04.774Z,983.48
2019-05-02T12:01:04.919Z,983.46
2019-05-02T12:02:02.678Z,983.56
2019-05-02T12:03:02.164Z,983.51
2019-05-02T12:04:02.943Z,983.49
2019-05-02T12:05:01.997Z,983.48
2019-05-02T12:06:02.006Z,983.45
2019-05-02T12:07:04.783Z,983.46
2019-05-02T12:08:07.680Z,983.43
2019-05-02T12:09:02.102Z,983.45
2019-05-02T12:10:04.149Z,983.46
2019-05-02T12:11:03.719Z,983.52
2019-05-02T12:12:02.519Z,983.45
2019-05-02T12:13:02.123Z,983.47
2019-05-02T12:14:01.889Z,983.44
2019-05-02T12:15:02.486Z,983.41
2019-05-02T12:16:02.658Z,983.36
2019-05-02T12:17:02.580Z,983.35
2019-05-02T12:18:02.496Z,983.29
2019-05-02T12:19:09.282Z,983.29
2019-05-02T12:20:02.100Z,983.36
2019-05-02T12:21:02.575Z,983.31
2019-05-02T12:22:02.582Z,983.31
2019-05-02T12:23:02.053Z,983.32
2019-05-02T12:24:02.204Z,983.32
2019-05-02T12:25:02.958Z,983.29
2019-05-02T12:26:02.757Z,983.28
2019-05-02T12:27:02.512Z,983.26
2019-05-02T12:28:02.273Z,983.22
2019-05-02T12:29:02.528Z,983.23
2019-05-02T12:30:03.243Z,983.21
2019-05-02T12:31:02.693Z,983.19